Time;durP1;ratioP1;P1;durP2;ratioP2;P2;SDS_P1;SDS_P2;PMS_P1;PMS_P2;Temp;Humidity;BMP_temperature;BMP_pressure;BME280_temperature;BME280_humidity;BME280_pressure;Samples;Min_cycle;Max_cycle;Signal;HPM_P1;HPM_P2
2021/12/16 00:08:45;;;;;;;27.35;18.27;;;5.80;99.90;;;;;;5030300;28;20049;-71
2021/12/16 00:33:19;;;;;;;28.48;18.48;;;5.80;99.90;;;;;;5028975;28;20045;-71
2021/12/16 00:35:50;;;;;;;27.05;16.65;;;5.80;99.90;;;;;;5028230;28;20132;-71
2021/12/16 00:38:18;;;;;;;27.05;16.23;;;5.80;99.90;;;;;;5029786;28;20041;-69
2021/12/16 00:40:46;;;;;;;26.75;17.05;;;5.80;99.90;;;;;;5029505;28;20045;-71
2021/12/16 00:43:24;;;;;;;24.25;16.25;;;5.80;99.90;;;;;;5028497;28;20483;-71
2021/12/16 00:54:12;;;;;;;25.13;16.67;;;5.70;99.90;;;;;;5028000;28;20064;-70
2021/12/16 00:56:49;;;;;;;26.75;18.08;;;5.70;99.90;;;;;;5035616;28;20136;-71
2021/12/16 00:59:19;;;;;;;26.25;17.30;;;5.70;99.90;;;;;;5024666;28;20052;-70
2021/12/16 01:05:01;;;;;;;27.85;18.15;;;5.70;99.90;;;;;;5047575;28;20049;-70
2021/12/16 01:07:53;;;;;;;28.25;18.00;;;5.60;99.90;;;;;;5027160;28;20358;-70
2021/12/16 01:39:31;;;;;;;30.33;19.25;;;5.50;99.90;;;;;;5006888;28;20504;-70
2021/12/16 01:55:20;;;;;;;30.55;19.67;;;5.60;99.90;;;;;;5028809;28;20084;-70
2021/12/16 01:57:55;;;;;;;30.63;19.42;;;5.60;99.90;;;;;;5036001;28;20045;-70
2021/12/16 02:00:28;;;;;;;35.20;20.67;;;5.60;99.90;;;;;;5025718;28;20790;-70
2021/12/16 02:03:04;;;;;;;30.33;19.48;;;5.50;99.90;;;;;;5008223;28;20042;-70
2021/12/16 02:10:45;;;;;;;33.60;21.02;;;5.50;99.90;;;;;;5024850;28;20046;-70
2021/12/16 02:37:53;;;;;;;33.30;20.27;;;5.60;99.90;;;;;;5030028;28;20160;-69
2021/12/16 02:40:21;;;;;;;35.70;21.75;;;5.50;99.90;;;;;;5031120;28;20099;-69
2021/12/16 02:42:59;;;;;;;34.20;21.10;;;5.50;99.90;;;;;;5031521;28;20095;-70
2021/12/16 02:48:39;;;;;;;33.83;22.02;;;5.50;99.90;;;;;;5030308;28;20056;-69
2021/12/16 02:51:26;;;;;;;37.33;21.98;;;5.50;99.90;;;;;;5031540;28;20060;-70
2021/12/16 02:54:04;;;;;;;35.38;20.80;;;5.50;99.90;;;;;;5029092;28;20038;-69
2021/12/16 02:56:35;;;;;;;36.60;22.13;;;5.50;99.90;;;;;;5030394;28;20050;-69
2021/12/16 02:59:03;;;;;;;34.13;21.88;;;5.50;99.90;;;;;;5009364;28;20137;-69
2021/12/16 03:01:42;;;;;;;34.55;20.95;;;5.40;99.90;;;;;;5030187;28;20050;-69
2021/12/16 03:04:13;;;;;;;40.95;23.35;;;5.50;99.90;;;;;;5016055;28;20041;-69
2021/12/16 03:06:46;;;;;;;39.10;22.83;;;5.40;99.90;;;;;;5030056;28;20120;-69
2021/12/16 03:09:25;;;;;;;39.72;22.35;;;5.40;99.90;;;;;;5026557;28;20427;-69
2021/12/16 03:14:44;;;;;;;35.30;21.60;;;5.40;99.90;;;;;;5031186;28;20038;-69
2021/12/16 03:20:08;;;;;;;36.90;21.25;;;5.40;99.90;;;;;;5029991;28;20067;-69
2021/12/16 03:25:25;;;;;;;36.80;21.83;;;5.40;99.90;;;;;;5029689;28;20049;-69
2021/12/16 03:33:52;;;;;;;34.78;19.67;;;5.30;99.90;;;;;;5029295;28;20045;-70
2021/12/16 03:39:00;;;;;;;40.58;22.15;;;5.40;99.90;;;;;;5029692;28;20045;-69
2021/12/16 03:41:31;;;;;;;33.70;20.70;;;5.40;99.90;;;;;;5028074;28;20056;-70
2021/12/16 03:44:05;;;;;;;38.38;21.13;;;5.40;99.90;;;;;;5028657;28;20064;-70
2021/12/16 03:46:37;;;;;;;34.33;21.15;;;5.40;99.90;;;;;;5028327;28;20034;-69
2021/12/16 03:49:14;;;;;;;37.35;21.08;;;5.40;99.90;;;;;;4996092;28;20052;-69
2021/12/16 03:51:47;;;;;;;35.70;20.23;;;5.40;99.90;;;;;;5029202;28;20045;-70
2021/12/16 03:54:17;;;;;;;34.72;20.80;;;5.40;99.90;;;;;;5028396;28;20095;-70
2021/12/16 03:56:48;;;;;;;36.15;20.70;;;5.40;99.90;;;;;;5029299;28;20136;-70
2021/12/16 03:59:31;;;;;;;32.22;19.27;;;5.40;99.90;;;;;;5029068;28;20209;-70
2021/12/16 04:02:30;;;;;;;37.80;21.40;;;5.40;99.90;;;;;;5005377;28;20068;-70
2021/12/16 04:05:01;;;;;;;32.55;19.92;;;5.50;99.90;;;;;;5028978;28;20081;-70
2021/12/16 04:07:35;;;;;;;31.08;19.67;;;5.50;99.90;;;;;;5011392;28;20746;-69
2021/12/16 04:10:34;;;;;;;34.83;20.38;;;5.40;99.90;;;;;;5023214;28;20051;-70
2021/12/16 04:13:07;;;;;;;31.67;18.90;;;5.40;99.90;;;;;;5028248;28;20053;-69
2021/12/16 04:15:35;;;;;;;32.25;18.08;;;5.40;99.90;;;;;;5011419;28;20041;-70
2021/12/16 04:18:04;;;;;;;31.25;18.58;;;5.40;99.90;;;;;;5028507;28;20045;-69
2021/12/16 04:20:31;;;;;;;33.88;20.05;;;5.50;99.90;;;;;;5028029;28;20045;-70
2021/12/16 04:23:00;;;;;;;30.85;18.92;;;5.50;99.90;;;;;;5027768;28;20041;-70
2021/12/16 04:25:32;;;;;;;31.73;19.20;;;5.50;99.90;;;;;;5028390;28;20124;-70
2021/12/16 04:28:04;;;;;;;33.67;19.30;;;5.50;99.90;;;;;;5027702;28;20754;-69
2021/12/16 04:30:32;;;;;;;33.75;20.17;;;5.50;99.90;;;;;;5027730;28;20045;-70
2021/12/16 04:33:04;;;;;;;33.85;20.15;;;5.50;99.90;;;;;;5028672;28;20041;-70
2021/12/16 04:35:34;;;;;;;34.45;19.40;;;5.50;99.90;;;;;;5027205;28;20042;-70
2021/12/16 04:38:04;;;;;;;32.78;19.27;;;5.50;99.90;;;;;;5028584;28;20049;-69
2021/12/16 04:40:35;;;;;;;33.60;19.77;;;5.50;99.90;;;;;;5029065;28;20528;-69
2021/12/16 04:43:06;;;;;;;33.38;20.35;;;5.50;99.90;;;;;;5039746;28;20084;-70
2021/12/16 04:45:49;;;;;;;32.67;18.75;;;5.50;99.90;;;;;;5023598;28;20455;-70
2021/12/16 04:48:17;;;;;;;32.70;19.15;;;5.40;99.90;;;;;;5008247;28;20133;-70
2021/12/16 04:50:45;;;;;;;37.30;20.38;;;5.40;99.90;;;;;;5019926;28;20087;-70
2021/12/16 04:53:14;;;;;;;35.83;20.05;;;5.50;99.90;;;;;;5028220;28;20041;-69
2021/12/16 04:55:47;;;;;;;35.45;20.33;;;5.50;99.90;;;;;;5027583;28;20043;-70
2021/12/16 04:58:15;;;;;;;33.03;19.88;;;5.50;99.90;;;;;;5029839;28;20121;-70
2021/12/16 05:00:43;;;;;;;33.92;20.63;;;5.50;99.90;;;;;;5028066;28;20045;-71
2021/12/16 05:03:19;;;;;;;33.95;20.15;;;5.40;99.90;;;;;;5024218;28;20369;-70
2021/12/16 05:05:47;;;;;;;39.95;21.20;;;5.50;99.90;;;;;;5027667;28;20087;-70
2021/12/16 05:08:15;;;;;;;35.20;20.48;;;5.50;99.90;;;;;;5027518;28;20048;-70
2021/12/16 05:11:02;;;;;;;37.95;21.58;;;5.40;99.90;;;;;;5013633;28;20412;-70
2021/12/16 05:13:34;;;;;;;37.55;21.85;;;5.40;99.90;;;;;;5052823;28;20470;-70
2021/12/16 05:16:04;;;;;;;36.72;21.17;;;5.40;99.90;;;;;;5026131;28;20033;-70
2021/12/16 05:18:38;;;;;;;37.92;20.58;;;5.40;99.90;;;;;;5026856;28;20045;-70
2021/12/16 05:21:38;;;;;;;35.83;20.58;;;5.40;99.90;;;;;;5011169;28;20068;-70
2021/12/16 05:24:25;;;;;;;36.70;20.42;;;5.40;99.90;;;;;;5006154;28;20050;-70
2021/12/16 05:27:16;;;;;;;39.00;20.90;;;5.50;99.90;;;;;;5025166;28;20085;-70
2021/12/16 05:29:44;;;;;;;39.20;22.80;;;5.50;99.90;;;;;;5028735;28;20037;-70
2021/12/16 05:32:13;;;;;;;41.13;22.35;;;5.50;99.90;;;;;;5035777;28;20052;-70
2021/12/16 05:34:41;;;;;;;38.15;21.63;;;5.50;99.90;;;;;;5026522;28;20116;-70
2021/12/16 05:37:08;;;;;;;37.78;21.27;;;5.50;99.90;;;;;;5010943;28;20071;-70
2021/12/16 05:39:39;;;;;;;38.70;22.63;;;5.50;99.90;;;;;;5026962;28;20045;-70
2021/12/16 05:42:27;;;;;;;38.65;21.70;;;5.50;99.90;;;;;;5028134;28;20843;-70
2021/12/16 05:44:54;;;;;;;35.75;20.55;;;5.50;99.90;;;;;;5026754;28;20041;-70
2021/12/16 05:47:22;;;;;;;36.03;20.55;;;5.50;99.90;;;;;;5026636;28;20042;-70
2021/12/16 05:49:50;;;;;;;36.00;20.48;;;5.50;99.90;;;;;;5026239;28;20128;-70
2021/12/16 05:52:18;;;;;;;38.15;21.10;;;5.50;99.90;;;;;;5026964;28;20042;-70
2021/12/16 05:54:46;;;;;;;36.53;20.88;;;5.50;99.90;;;;;;5013206;28;20447;-70
2021/12/16 05:57:34;;;;;;;42.45;24.40;;;5.50;99.90;;;;;;5021803;28;20415;-70
2021/12/16 06:00:17;;;;;;;38.30;21.48;;;5.50;99.90;;;;;;5025072;28;20030;-70
2021/12/16 06:02:45;;;;;;;40.55;23.00;;;5.50;99.90;;;;;;5059224;28;20084;-71
2021/12/16 06:05:13;;;;;;;38.75;22.05;;;5.50;99.90;;;;;;5032460;28;20038;-69
2021/12/16 06:07:41;;;;;;;38.08;20.83;;;5.50;99.90;;;;;;5056379;28;20049;-69
2021/12/16 06:10:21;;;;;;;37.92;20.40;;;5.50;99.90;;;;;;5031238;28;20520;-69
2021/12/16 06:12:49;;;;;;;38.30;21.08;;;5.50;99.90;;;;;;5031914;28;20048;-69
2021/12/16 06:28:58;;;;;;;36.72;20.67;;;5.40;99.90;;;;;;5032427;28;20436;-69
2021/12/16 06:31:25;;;;;;;39.80;20.30;;;5.40;99.90;;;;;;5031978;28;20541;-69
2021/12/16 06:33:53;;;;;;;37.22;21.67;;;5.50;99.90;;;;;;5032295;28;20041;-70
2021/12/16 06:36:21;;;;;;;35.63;20.77;;;5.50;99.90;;;;;;5030591;28;20049;-70
2021/12/16 06:38:48;;;;;;;35.40;20.20;;;5.50;99.90;;;;;;5030390;28;20041;-70
2021/12/16 06:41:20;;;;;;;35.38;20.05;;;5.50;99.90;;;;;;5030721;28;20396;-69
2021/12/16 06:44:28;;;;;;;34.38;20.23;;;5.50;99.90;;;;;;5007803;28;20086;-67
2021/12/16 06:47:02;;;;;;;33.13;19.58;;;5.50;99.90;;;;;;5031400;28;20092;-69
2021/12/16 06:49:31;;;;;;;35.47;20.48;;;5.50;99.90;;;;;;5028025;28;20136;-70
2021/12/16 06:52:03;;;;;;;36.28;21.65;;;5.50;99.90;;;;;;5032495;28;20045;-69
2021/12/16 07:00:05;;;;;;;34.85;20.00;;;5.60;99.90;;;;;;5031522;28;20042;-69
2021/12/16 07:02:46;;;;;;;35.72;20.98;;;5.60;99.90;;;;;;5028757;28;20492;-68
2021/12/16 07:05:16;;;;;;;39.20;22.13;;;5.50;99.90;;;;;;5024384;28;20041;-69
2021/12/16 07:07:44;;;;;;;36.90;21.63;;;5.60;99.90;;;;;;5031139;28;20539;-69
2021/12/16 07:10:14;;;;;;;38.17;21.30;;;5.50;99.90;;;;;;5030793;28;20038;-68
2021/12/16 07:12:47;;;;;;;36.13;20.77;;;5.60;99.90;;;;;;5031121;28;20045;-68
2021/12/16 07:15:20;;;;;;;38.42;21.70;;;5.60;99.90;;;;;;5022717;28;20053;-68
2021/12/16 07:17:47;;;;;;;;;;;5.60;99.90;;;;;;5031162;28;20445;-68
2021/12/16 07:20:18;;;;;;;37.58;20.05;;;5.60;99.90;;;;;;5031040;28;20451;-69
2021/12/16 07:22:45;;;;;;;39.08;21.00;;;5.60;99.90;;;;;;5028751;28;20049;-69
2021/12/16 07:25:13;;;;;;;37.78;20.08;;;5.50;99.90;;;;;;5029033;28;20052;-68
2021/12/16 07:27:41;;;;;;;35.17;21.60;;;5.60;99.90;;;;;;5030692;28;20129;-69
2021/12/16 07:30:11;;;;;;;38.42;20.58;;;5.60;99.90;;;;;;5034586;28;20030;-69
2021/12/16 07:32:39;;;;;;;37.58;22.23;;;5.60;99.90;;;;;;5030880;28;20038;-69
2021/12/16 07:35:11;;;;;;;36.85;20.85;;;5.60;99.90;;;;;;5030525;28;20034;-69
2021/12/16 07:37:40;;;;;;;39.70;21.13;;;5.70;99.90;;;;;;5030654;28;20144;-69
2021/12/16 07:40:10;;;;;;;35.25;20.02;;;5.70;99.90;;;;;;5030173;28;20042;-69
2021/12/16 07:42:59;;;;;;;34.38;20.40;;;5.70;99.90;;;;;;5018516;28;20053;-69
2021/12/16 07:45:28;;;;;;;34.83;20.45;;;5.70;99.90;;;;;;5025108;28;20072;-69
2021/12/16 07:47:56;;;;;;;36.30;19.45;;;5.80;99.90;;;;;;5030037;28;20075;-69
2021/12/16 07:50:24;;;;;;;34.97;20.05;;;5.80;99.90;;;;;;5032311;28;20124;-69
2021/12/16 07:52:51;;;;;;;34.70;19.73;;;5.70;99.90;;;;;;5030454;28;20052;-69
2021/12/16 07:55:20;;;;;;;36.03;20.42;;;5.80;99.90;;;;;;5029795;28;20072;-69
2021/12/16 07:57:48;;;;;;;34.83;19.45;;;5.70;99.90;;;;;;5032866;28;20041;-70
2021/12/16 08:00:22;;;;;;;38.67;21.60;;;5.70;99.90;;;;;;5020220;28;20077;-69
2021/12/16 08:02:50;;;;;;;31.65;18.23;;;5.70;99.90;;;;;;5018792;28;20090;-69
2021/12/16 08:05:21;;;;;;;35.20;19.13;;;5.70;99.90;;;;;;5015303;28;20505;-70
2021/12/16 08:07:48;;;;;;;29.52;17.88;;;5.70;99.90;;;;;;5016363;28;20038;-70
2021/12/16 08:10:20;;;;;;;30.15;17.80;;;5.70;99.90;;;;;;5028159;28;20060;-69
2021/12/16 08:12:47;;;;;;;32.03;18.20;;;5.70;99.90;;;;;;5028153;28;20381;-69
2021/12/16 08:15:16;;;;;;;33.13;18.52;;;5.70;99.90;;;;;;5028599;28;20071;-70
2021/12/16 08:17:44;;;;;;;34.88;19.35;;;5.70;99.90;;;;;;5043186;28;20045;-67
2021/12/16 08:20:16;;;;;;;35.92;20.17;;;5.80;99.90;;;;;;5027329;28;20488;-68
2021/12/16 08:22:49;;;;;;;34.13;19.80;;;5.70;99.90;;;;;;5029645;28;20065;-69
2021/12/16 08:25:20;;;;;;;33.55;18.85;;;5.70;99.90;;;;;;5030067;28;20060;-70
2021/12/16 08:27:48;;;;;;;31.33;18.60;;;5.80;99.90;;;;;;5029098;28;20099;-70
2021/12/16 08:30:20;;;;;;;32.50;18.10;;;5.90;99.90;;;;;;5028275;28;20039;-70
2021/12/16 08:32:47;;;;;;;37.92;18.98;;;5.90;99.90;;;;;;5026980;28;21390;-70
2021/12/16 08:35:15;;;;;;;32.08;18.70;;;5.90;99.90;;;;;;5027591;28;20048;-69
2021/12/16 08:37:42;;;;;;;34.40;18.55;;;5.90;99.90;;;;;;5028801;28;20057;-69
2021/12/16 08:40:17;;;;;;;31.00;17.60;;;5.90;99.90;;;;;;5027146;28;20045;-68
2021/12/16 08:42:45;;;;;;;33.63;18.38;;;5.90;99.90;;;;;;5028333;28;20064;-69
2021/12/16 08:45:21;;;;;;;30.42;17.70;;;5.90;99.90;;;;;;5027997;28;20047;-68
2021/12/16 08:47:48;;;;;;;36.70;18.65;;;5.90;99.90;;;;;;5028039;28;20056;-69
2021/12/16 08:50:19;;;;;;;33.35;18.42;;;5.80;99.90;;;;;;5028594;28;20099;-69
2021/12/16 08:52:47;;;;;;;34.58;19.27;;;5.90;99.90;;;;;;5028110;28;20057;-69
2021/12/16 08:55:15;;;;;;;30.85;18.00;;;5.90;99.90;;;;;;5028752;28;20045;-69
2021/12/16 08:57:42;;;;;;;34.80;19.67;;;5.90;99.90;;;;;;5033593;28;20337;-69
2021/12/16 09:00:16;;;;;;;40.20;19.08;;;5.90;99.90;;;;;;5028898;28;20049;-69
2021/12/16 09:02:44;;;;;;;36.33;19.08;;;5.90;99.90;;;;;;5015585;28;20448;-69
2021/12/16 09:05:11;;;;;;;33.13;18.83;;;5.90;99.90;;;;;;5028238;28;20057;-69
2021/12/16 09:07:39;;;;;;;34.97;19.73;;;5.90;99.90;;;;;;5028050;28;20404;-69
2021/12/16 09:10:11;;;;;;;35.10;19.00;;;6.00;99.90;;;;;;5028191;28;20051;-70
2021/12/16 09:12:51;;;;;;;29.95;17.73;;;6.00;99.90;;;;;;5032581;28;20048;-69
2021/12/16 09:15:21;;;;;;;34.05;19.58;;;6.00;99.90;;;;;;5026832;28;20436;-69
2021/12/16 09:17:48;;;;;;;35.08;20.23;;;6.10;99.90;;;;;;5028493;28;20050;-69
2021/12/16 09:20:16;;;;;;;32.45;19.45;;;6.20;99.90;;;;;;5026908;28;20047;-69
2021/12/16 09:22:44;;;;;;;31.42;18.25;;;6.20;99.90;;;;;;5027959;28;20041;-69
2021/12/16 09:25:12;;;;;;;33.13;19.05;;;6.20;99.90;;;;;;5027806;28;20104;-69
2021/12/16 09:27:41;;;;;;;32.25;18.85;;;6.20;99.90;;;;;;5027851;28;20503;-69
2021/12/16 09:30:12;;;;;;;35.70;19.20;;;6.20;99.90;;;;;;5031640;28;20042;-69
2021/12/16 09:32:39;;;;;;;34.42;20.35;;;6.30;99.90;;;;;;5032048;28;20037;-69
2021/12/16 09:35:08;;;;;;;32.22;18.55;;;6.30;99.90;;;;;;5031861;28;20052;-69
2021/12/16 09:37:36;;;;;;;31.75;18.27;;;6.30;99.90;;;;;;5031244;28;20041;-69
2021/12/16 09:40:07;;;;;;;33.30;18.77;;;6.40;99.90;;;;;;5032618;28;20049;-69
2021/12/16 09:42:35;;;;;;;35.17;19.25;;;6.40;99.90;;;;;;5032167;28;20447;-69
2021/12/16 09:45:05;;;;;;;33.20;18.80;;;6.40;99.90;;;;;;5031009;28;20071;-69
2021/12/16 09:47:32;;;;;;;39.15;19.98;;;6.40;99.90;;;;;;5031991;28;20509;-69
2021/12/16 09:49:59;;;;;;;34.53;20.23;;;6.40;99.90;;;;;;5031701;28;20369;-69
2021/12/16 09:52:30;;;;;;;35.15;20.70;;;6.40;99.90;;;;;;5031535;28;20049;-69
2021/12/16 09:54:58;;;;;;;30.90;19.13;;;6.40;99.90;;;;;;5030249;28;20042;-69
2021/12/16 09:57:25;;;;;;;34.35;18.83;;;6.40;99.90;;;;;;5034620;28;20049;-69
2021/12/16 09:59:52;;;;;;;35.72;20.17;;;6.50;99.90;;;;;;5033903;28;20058;-69
2021/12/16 10:02:21;;;;;;;34.45;19.27;;;6.50;99.90;;;;;;5042321;28;20120;-69
2021/12/16 10:04:49;;;;;;;33.45;18.60;;;6.50;99.90;;;;;;5029291;28;20049;-69
2021/12/16 10:07:20;;;;;;;36.10;19.63;;;6.50;99.90;;;;;;5032061;28;20187;-69
2021/12/16 10:09:51;;;;;;;37.20;19.23;;;6.60;99.90;;;;;;5030884;28;20041;-69
2021/12/16 10:12:24;;;;;;;34.45;19.52;;;6.60;99.90;;;;;;5030576;28;20053;-68
2021/12/16 10:17:28;;;;;;;43.63;20.83;;;6.70;99.90;;;;;;5029251;28;20048;-69
2021/12/16 10:19:58;;;;;;;38.83;21.45;;;6.60;99.90;;;;;;5031215;28;20061;-69
2021/12/16 10:22:40;;;;;;;40.45;21.60;;;6.70;99.90;;;;;;5029826;28;20526;-69
2021/12/16 10:25:29;;;;;;;37.97;20.73;;;6.60;99.90;;;;;;5030898;28;20041;-69
2021/12/16 10:28:02;;;;;;;37.88;20.38;;;6.60;99.90;;;;;;5030525;28;20044;-69
2021/12/16 10:30:36;;;;;;;37.70;21.08;;;6.50;99.90;;;;;;5028109;28;20076;-69
2021/12/16 10:33:47;;;;;;;36.63;20.52;;;6.50;99.90;;;;;;5026407;28;20037;-69
2021/12/16 10:36:19;;;;;;;36.10;20.23;;;6.50;99.90;;;;;;5034057;28;20049;-69
2021/12/16 10:38:46;;;;;;;38.78;20.25;;;6.60;99.90;;;;;;5029261;28;20050;-69
2021/12/16 10:41:21;;;;;;;39.85;21.15;;;6.60;99.90;;;;;;5029216;28;20049;-68
2021/12/16 10:43:54;;;;;;;37.13;20.85;;;6.60;99.90;;;;;;5030803;28;20049;-69
2021/12/16 10:46:27;;;;;;;38.67;21.58;;;6.50;99.90;;;;;;5027935;28;20049;-68
2021/12/16 10:49:03;;;;;;;34.88;19.65;;;6.60;99.90;;;;;;5027302;28;20076;-69
2021/12/16 10:51:34;;;;;;;45.10;22.27;;;6.60;99.90;;;;;;5028105;28;20056;-68
2021/12/16 10:54:11;;;;;;;37.75;20.73;;;6.60;99.90;;;;;;5028563;28;20078;-68
2021/12/16 10:56:48;;;;;;;41.97;22.27;;;6.60;99.90;;;;;;5021903;28;20046;-69
2021/12/16 10:59:34;;;;;;;43.42;22.67;;;6.70;99.90;;;;;;5027767;28;20437;-69
2021/12/16 11:02:09;;;;;;;43.22;21.98;;;6.70;99.90;;;;;;5030591;28;20056;-68
2021/12/16 11:05:03;;;;;;;43.80;22.40;;;6.80;99.90;;;;;;5028682;28;20046;-68
2021/12/16 11:07:37;;;;;;;42.28;22.48;;;6.90;99.90;;;;;;5027192;28;20054;-68
2021/12/16 11:10:11;;;;;;;44.67;22.63;;;6.90;99.90;;;;;;5008408;28;20058;-67
2021/12/16 11:12:42;;;;;;;40.42;21.10;;;7.00;99.90;;;;;;5028779;28;20040;-68
2021/12/16 11:15:12;;;;;;;40.17;22.67;;;7.30;99.90;;;;;;5028022;28;20057;-68
2021/12/16 11:17:48;;;;;;;39.53;21.58;;;7.50;99.90;;;;;;5028260;28;20045;-68
2021/12/16 11:20:18;;;;;;;39.42;21.42;;;7.80;99.90;;;;;;5029637;28;20037;-67
2021/12/16 11:22:48;;;;;;;39.35;21.10;;;8.30;99.90;;;;;;5030300;28;20511;-70
2021/12/16 11:25:28;;;;;;;34.35;20.40;;;8.70;99.90;;;;;;5025142;28;20041;-70
2021/12/16 11:28:18;;;;;;;38.13;19.90;;;9.00;99.90;;;;;;5030063;28;20041;-70
2021/12/16 11:30:48;;;;;;;39.63;21.77;;;9.10;99.90;;;;;;5030098;28;20054;-70
2021/12/16 11:33:29;;;;;;;36.92;20.67;;;8.90;99.90;;;;;;5026695;28;20053;-70
2021/12/16 11:36:18;;;;;;;34.45;20.90;;;8.80;99.90;;;;;;5028759;28;20129;-70
2021/12/16 11:39:09;;;;;;;37.15;20.50;;;8.50;99.90;;;;;;5030113;28;20041;-70
2021/12/16 11:41:45;;;;;;;39.95;21.90;;;8.40;99.90;;;;;;5029287;28;20045;-70
2021/12/16 11:44:23;;;;;;;35.63;20.00;;;8.30;99.90;;;;;;5027701;28;20056;-70
2021/12/16 11:47:19;;;;;;;35.83;19.88;;;8.30;99.90;;;;;;5027858;28;20045;-70
2021/12/16 11:49:54;;;;;;;37.28;19.55;;;8.30;99.90;;;;;;5027725;28;20042;-70
2021/12/16 11:52:25;;;;;;;37.63;21.23;;;8.40;99.90;;;;;;5027780;28;20072;-70
2021/12/16 11:54:56;;;;;;;39.35;21.95;;;8.20;99.90;;;;;;5027767;28;20041;-69
2021/12/16 11:57:26;;;;;;;37.63;21.43;;;8.20;99.90;;;;;;5029948;28;20055;-70
2021/12/16 11:59:55;;;;;;;41.17;22.52;;;8.30;99.90;;;;;;5028944;28;20068;-70
2021/12/16 12:02:38;;;;;;;31.65;18.60;;;8.40;99.90;;;;;;5026800;28;20053;-71
2021/12/16 12:05:24;;;;;;;32.05;18.73;;;8.40;99.90;;;;;;5025619;28;20050;-70
2021/12/16 12:07:56;;;;;;;31.08;19.05;;;8.50;99.90;;;;;;5025915;28;20041;-70
2021/12/16 12:10:43;;;;;;;31.80;19.42;;;8.50;99.90;;;;;;5029737;28;20033;-70
2021/12/16 12:13:18;;;;;;;33.65;19.33;;;8.60;99.90;;;;;;5027632;28;20048;-70
2021/12/16 12:16:00;;;;;;;36.47;20.88;;;8.70;99.90;;;;;;5029616;28;20088;-69
2021/12/16 12:18:50;;;;;;;35.03;18.42;;;8.70;99.90;;;;;;5029678;28;20392;-69
2021/12/16 12:21:40;;;;;;;34.17;19.95;;;8.50;99.90;;;;;;5027122;28;20053;-69
2021/12/16 12:24:16;;;;;;;32.83;19.67;;;8.40;99.90;;;;;;5026774;28;20045;-69
2021/12/16 12:27:09;;;;;;;36.92;22.48;;;8.30;99.90;;;;;;5023859;28;20050;-69
2021/12/16 12:30:04;;;;;;;29.83;17.80;;;8.20;99.90;;;;;;5012343;28;20473;-69
2021/12/16 12:32:35;;;;;;;38.15;20.85;;;8.30;99.90;;;;;;5028153;28;20049;-69
2021/12/16 12:35:07;;;;;;;36.13;21.33;;;8.40;99.90;;;;;;5026895;28;20041;-70
2021/12/16 12:37:37;;;;;;;37.25;21.90;;;8.40;99.90;;;;;;5023093;28;20096;-69
2021/12/16 12:40:13;;;;;;;37.78;21.52;;;8.40;99.90;;;;;;5026866;28;20098;-68
2021/12/16 12:42:43;;;;;;;37.10;22.50;;;8.40;99.90;;;;;;5027575;28;20079;-69
2021/12/16 12:45:12;;;;;;;33.08;20.95;;;8.50;99.90;;;;;;5026916;28;20092;-69
2021/12/16 12:47:42;;;;;;;37.35;20.70;;;8.60;99.90;;;;;;5024094;28;20065;-69
2021/12/16 12:50:20;;;;;;;35.38;21.15;;;8.70;99.90;;;;;;5028278;28;20405;-68
2021/12/16 12:52:51;;;;;;;35.88;21.23;;;8.80;99.90;;;;;;5032828;28;20044;-69
2021/12/16 12:55:31;;;;;;;39.22;20.33;;;8.60;99.90;;;;;;5024177;28;20048;-69
2021/12/16 12:58:07;;;;;;;35.55;20.92;;;8.50;99.90;;;;;;5035557;28;20037;-69
2021/12/16 13:00:40;;;;;;;38.05;21.77;;;8.40;99.90;;;;;;5029855;28;20050;-69
2021/12/16 13:03:19;;;;;;;33.30;20.25;;;8.40;99.90;;;;;;5028247;28;20054;-69
2021/12/16 13:06:03;;;;;;;37.83;20.67;;;8.30;99.90;;;;;;5024294;28;20077;-69
2021/12/16 13:08:37;;;;;;;35.40;20.63;;;8.40;99.90;;;;;;5027437;28;20084;-69
2021/12/16 13:11:17;;;;;;;36.80;21.23;;;8.40;99.90;;;;;;5026838;28;20517;-69
2021/12/16 13:14:37;;;;;;;35.42;21.55;;;8.50;99.90;;;;;;5028091;28;20045;-69
2021/12/16 13:17:31;;;;;;;40.53;22.60;;;8.50;99.90;;;;;;5025684;28;20047;-69
2021/12/16 13:23:28;;;;;;;39.05;22.42;;;8.50;99.90;;;;;;5029619;28;20042;-69
2021/12/16 13:31:07;;;;;;;35.40;20.50;;;8.20;99.90;;;;;;5026455;28;20084;-69
2021/12/16 13:33:42;;;;;;;39.58;24.25;;;8.30;99.90;;;;;;5024847;28;20179;-69
2021/12/16 13:36:18;;;;;;;36.85;21.50;;;8.20;99.90;;;;;;5027794;28;20041;-68
2021/12/16 13:38:49;;;;;;;38.55;22.70;;;8.20;99.90;;;;;;5027258;28;20056;-69
2021/12/16 13:41:20;;;;;;;38.67;21.42;;;8.10;99.90;;;;;;5027085;28;20575;-68
2021/12/16 13:44:02;;;;;;;36.83;21.17;;;8.10;99.90;;;;;;5026091;28;20080;-69
2021/12/16 13:46:40;;;;;;;36.35;21.33;;;8.20;99.90;;;;;;5025424;28;20123;-68
2021/12/16 14:05:59;;;;;;;38.63;22.05;;;8.20;99.90;;;;;;5023611;28;20042;-69
2021/12/16 14:08:34;;;;;;;38.25;23.10;;;8.20;99.90;;;;;;5028046;28;20477;-68
2021/12/16 14:11:28;;;;;;;38.25;22.33;;;8.10;99.90;;;;;;5025785;28;20048;-69
2021/12/16 14:25:25;;;;;;;37.45;22.13;;;8.10;99.90;;;;;;5031020;28;20041;-68
2021/12/16 14:42:03;;;;;;;34.45;20.23;;;7.90;99.90;;;;;;5019015;28;20048;-68
2021/12/16 14:47:40;;;;;;;39.33;22.92;;;7.80;99.90;;;;;;5016828;28;20423;-69
2021/12/16 14:50:05;;;;;;;36.85;22.52;;;7.80;99.90;;;;;;5020087;28;20049;-69
2021/12/16 14:52:32;;;;;;;35.67;21.75;;;7.70;99.90;;;;;;5016590;28;20060;-69
2021/12/16 14:55:04;;;;;;;39.78;22.55;;;7.60;99.90;;;;;;5021744;28;20049;-68
2021/12/16 14:57:43;;;;;;;40.65;23.45;;;7.60;99.90;;;;;;5020195;28;20523;-69
2021/12/16 15:00:29;;;;;;;37.65;22.33;;;7.60;99.90;;;;;;5018408;28;20050;-69
2021/12/16 15:03:16;;;;;;;39.35;21.85;;;7.50;99.90;;;;;;5020093;28;20052;-69
2021/12/16 15:05:48;;;;;;;36.10;20.63;;;7.50;99.90;;;;;;5023649;28;20392;-70
2021/12/16 15:08:31;;;;;;;37.35;21.70;;;7.50;99.90;;;;;;5021991;28;20463;-70
2021/12/16 15:10:59;;;;;;;39.08;22.15;;;7.50;99.90;;;;;;5021680;28;20038;-69
2021/12/16 15:13:34;;;;;;;42.20;23.38;;;7.50;99.90;;;;;;5022104;28;20059;-69
2021/12/16 15:16:19;;;;;;;36.22;20.83;;;7.50;99.90;;;;;;5021837;28;20038;-69
2021/12/16 15:38:40;;;;;;;41.50;23.60;;;7.30;99.90;;;;;;5023227;28;20046;-70
2021/12/16 15:40:59;;;;;;;38.40;21.90;;;7.30;99.90;;;;;;5027733;28;20687;-70
2021/12/16 15:43:32;;;;;;;36.95;21.25;;;7.30;99.90;;;;;;5031984;28;20041;-70
2021/12/16 15:46:04;;;;;;;38.25;21.83;;;7.20;99.90;;;;;;5027247;28;20041;-68
2021/12/16 15:48:32;;;;;;;37.80;21.38;;;7.20;99.90;;;;;;5019822;28;20041;-68
2021/12/16 15:51:08;;;;;;;39.30;22.63;;;7.20;99.90;;;;;;5028179;28;20388;-68
2021/12/16 15:53:38;;;;;;;39.85;23.10;;;7.30;99.90;;;;;;5028616;28;20049;-69
2021/12/16 15:56:07;;;;;;;38.22;21.45;;;7.30;99.90;;;;;;5030187;28;20037;-69
2021/12/16 15:58:38;;;;;;;40.38;24.20;;;7.30;99.90;;;;;;5029977;28;20543;-68
2021/12/16 16:01:13;;;;;;;37.50;20.90;;;7.20;99.90;;;;;;5030014;28;20041;-69
2021/12/16 16:03:41;;;;;;;42.85;23.80;;;7.20;99.90;;;;;;5028532;28;20080;-68
2021/12/16 16:06:11;;;;;;;43.15;24.15;;;7.20;99.90;;;;;;5019269;28;20049;-68
2021/12/16 16:08:42;;;;;;;40.70;22.42;;;7.10;99.90;;;;;;5029128;28;20393;-68
2021/12/16 16:11:14;;;;;;;35.30;21.43;;;7.10;99.90;;;;;;5060217;28;20488;-68
2021/12/16 16:13:48;;;;;;;39.95;24.55;;;7.10;99.90;;;;;;5028636;28;20048;-68
2021/12/16 16:16:20;;;;;;;41.00;22.45;;;7.20;99.90;;;;;;5029554;28;20080;-68
2021/12/16 16:18:55;;;;;;;39.35;21.58;;;7.10;99.90;;;;;;5027583;28;20056;-67
2021/12/16 16:21:40;;;;;;;37.85;21.65;;;7.10;99.90;;;;;;5028473;28;20045;-68
2021/12/16 16:24:20;;;;;;;36.28;21.15;;;7.10;99.90;;;;;;5030118;28;20041;-69
2021/12/16 16:26:51;;;;;;;43.08;23.60;;;7.10;99.90;;;;;;5029767;28;20038;-68
2021/12/16 16:29:23;;;;;;;44.05;24.50;;;7.20;99.90;;;;;;5029800;28;20049;-69
2021/12/16 16:31:51;;;;;;;43.22;22.15;;;7.10;99.90;;;;;;5029726;28;20400;-68
2021/12/16 16:34:40;;;;;;;42.33;23.20;;;7.20;99.90;;;;;;5029646;28;20049;-68
2021/12/16 16:37:09;;;;;;;39.50;24.33;;;7.20;99.90;;;;;;5020392;28;20044;-69
2021/12/16 16:39:41;;;;;;;39.95;23.58;;;7.20;99.90;;;;;;5029743;28;20057;-69
2021/12/16 16:42:13;;;;;;;39.63;23.92;;;7.20;99.90;;;;;;5019451;28;20053;-69
2021/12/16 16:44:44;;;;;;;45.60;23.30;;;7.20;99.90;;;;;;5020708;28;20125;-69
2021/12/16 16:47:28;;;;;;;37.47;22.42;;;7.20;99.90;;;;;;5027799;28;20045;-69
2021/12/16 16:49:57;;;;;;;40.35;23.25;;;7.20;99.90;;;;;;5029343;28;20045;-69
2021/12/16 16:52:35;;;;;;;43.47;23.85;;;7.20;99.90;;;;;;5029356;28;20045;-69
2021/12/16 16:55:19;;;;;;;37.03;21.95;;;7.20;99.90;;;;;;5029498;28;20057;-69
2021/12/16 16:57:51;;;;;;;41.38;22.67;;;7.20;99.90;;;;;;5032433;28;20047;-69
2021/12/16 17:00:39;;;;;;;40.92;23.42;;;7.20;99.90;;;;;;5027767;28;20499;-69